Time;durP1;ratioP1;P1;durP2;ratioP2;P2;SDS_P1;SDS_P2;PMS_P1;PMS_P2;Temp;Humidity;BMP_temperature;BMP_pressure;BME280_temperature;BME280_humidity;BME280_pressure;Samples;Min_cycle;Max_cycle;Signal;HPM_P1;HPM_P2
2023/03/07 00:00:33;;;;;;;12.37;7.77;;;0.30;99.90;;;;;;5039057;28;20297;-75
2023/03/07 00:02:59;;;;;;;15.93;7.53;;;0.30;99.90;;;;;;5038311;28;20202;-75
2023/03/07 00:05:25;;;;;;;16.27;7.47;;;0.40;99.90;;;;;;5039944;28;20269;-74
2023/03/07 00:07:51;;;;;;;13.53;7.63;;;0.30;99.90;;;;;;5037486;28;20247;-78
2023/03/07 00:10:16;;;;;;;15.37;7.13;;;0.40;99.90;;;;;;5044612;28;20267;-78
2023/03/07 00:12:42;;;;;;;13.87;8.00;;;0.40;99.90;;;;;;5040527;28;20209;-75
2023/03/07 00:15:09;;;;;;;14.17;7.20;;;0.40;99.90;;;;;;5038461;28;20196;-74
2023/03/07 00:17:36;;;;;;;11.53;6.97;;;0.30;99.90;;;;;;5036952;28;20208;-72
2023/03/07 00:20:05;;;;;;;12.13;6.53;;;0.30;99.90;;;;;;5042703;28;20645;-74
2023/03/07 00:22:31;;;;;;;17.97;8.23;;;0.30;99.90;;;;;;5043578;28;20260;-76
2023/03/07 00:24:57;;;;;;;12.23;8.10;;;0.30;99.90;;;;;;5040566;28;20875;-74
2023/03/07 00:27:22;;;;;;;13.77;7.93;;;0.30;99.90;;;;;;5040325;28;20865;-73
2023/03/07 00:29:49;;;;;;;15.70;8.50;;;0.30;99.90;;;;;;5039121;28;20220;-73
2023/03/07 00:32:15;;;;;;;16.07;7.77;;;0.30;99.90;;;;;;5038555;28;20250;-73
2023/03/07 00:34:40;;;;;;;12.97;8.57;;;0.30;99.90;;;;;;5041690;28;20577;-75
2023/03/07 00:37:06;;;;;;;16.20;9.90;;;0.40;99.90;;;;;;5041022;28;20230;-75
2023/03/07 00:39:32;;;;;;;16.47;9.23;;;0.40;99.90;;;;;;5039217;28;20628;-77
2023/03/07 00:41:58;;;;;;;16.90;8.83;;;0.40;99.90;;;;;;5032337;28;20298;-74
2023/03/07 00:44:25;;;;;;;19.03;9.50;;;0.40;99.90;;;;;;5037387;28;20221;-76
2023/03/07 00:46:51;;;;;;;15.70;9.40;;;0.40;99.90;;;;;;5043701;28;20183;-74
2023/03/07 00:49:19;;;;;;;20.93;10.00;;;0.40;99.90;;;;;;5037021;28;20235;-75
2023/03/07 00:51:45;;;;;;;15.57;9.67;;;0.40;99.90;;;;;;5041092;28;20204;-75
2023/03/07 00:54:10;;;;;;;17.03;10.57;;;0.40;99.90;;;;;;5034159;28;20309;-72
2023/03/07 00:56:36;;;;;;;18.80;10.80;;;0.50;99.90;;;;;;5044327;28;20740;-73
2023/03/07 00:59:02;;;;;;;20.30;10.77;;;0.50;99.90;;;;;;5040449;28;20203;-74
2023/03/07 01:01:28;;;;;;;17.50;9.87;;;0.50;99.90;;;;;;5041062;28;20233;-74
2023/03/07 01:03:54;;;;;;;18.53;10.43;;;0.50;99.90;;;;;;5037466;28;20221;-75
2023/03/07 01:06:28;;;;;;;21.50;10.67;;;0.50;99.90;;;;;;5041136;28;20299;-73
2023/03/07 01:09:03;;;;;;;16.40;10.03;;;0.50;99.90;;;;;;5039692;28;20217;-74
2023/03/07 01:11:29;;;;;;;18.97;10.80;;;0.50;99.90;;;;;;5034536;28;20751;-73
2023/03/07 01:13:59;;;;;;;21.27;11.77;;;0.40;99.90;;;;;;5039230;28;20607;-77
2023/03/07 01:16:35;;;;;;;21.10;11.63;;;0.50;99.90;;;;;;5039824;28;20181;-76
2023/03/07 01:19:04;;;;;;;21.73;12.83;;;0.60;99.90;;;;;;5040997;28;20339;-76
2023/03/07 01:21:36;;;;;;;22.10;11.57;;;0.50;99.90;;;;;;5041746;28;20202;-75
2023/03/07 01:24:03;;;;;;;20.50;11.37;;;0.40;99.90;;;;;;5057941;28;20238;-74
2023/03/07 01:26:31;;;;;;;19.30;11.40;;;0.40;99.90;;;;;;5036159;28;20545;-76
2023/03/07 01:28:59;;;;;;;20.37;11.23;;;0.40;99.90;;;;;;5037784;28;20648;-79
2023/03/07 01:31:25;;;;;;;19.13;11.27;;;0.30;99.90;;;;;;5034380;28;20184;-78
2023/03/07 01:33:52;;;;;;;21.30;10.90;;;0.40;99.90;;;;;;5037690;28;20727;-74
2023/03/07 01:36:29;;;;;;;24.73;11.57;;;0.30;99.90;;;;;;5035719;28;20698;-75
2023/03/07 01:38:57;;;;;;;20.33;11.77;;;0.30;99.90;;;;;;5039808;28;20572;-74
2023/03/07 01:41:24;;;;;;;13.97;7.47;;;0.50;99.90;;;;;;5043226;28;20221;-73
2023/03/07 01:43:50;;;;;;;24.47;12.67;;;0.50;99.90;;;;;;5044083;28;20196;-74
2023/03/07 01:46:18;;;;;;;26.37;13.37;;;0.50;99.90;;;;;;5044716;28;20210;-73
2023/03/07 01:49:20;;;;;;;24.67;12.17;;;0.50;99.90;;;;;;5045563;28;20743;-73
2023/03/07 01:51:55;;;;;;;23.73;13.20;;;0.40;99.90;;;;;;5024798;28;20212;-74
2023/03/07 01:54:23;;;;;;;25.33;13.90;;;0.30;99.90;;;;;;5042517;28;20702;-73
2023/03/07 01:56:49;;;;;;;30.03;13.73;;;0.40;99.90;;;;;;5045785;28;20223;-73
2023/03/07 01:59:23;;;;;;;26.57;13.37;;;0.40;99.90;;;;;;5046331;28;20235;-73
2023/03/07 02:01:50;;;;;;;26.40;13.93;;;0.40;99.90;;;;;;5044842;28;20177;-72
2023/03/07 02:04:26;;;;;;;27.60;13.57;;;0.30;99.90;;;;;;5049454;28;20282;-72
2023/03/07 02:06:51;;;;;;;27.17;13.77;;;0.30;99.90;;;;;;5048024;28;20202;-71
2023/03/07 02:09:21;;;;;;;30.00;14.73;;;0.30;99.90;;;;;;5049456;28;20714;-73
2023/03/07 02:11:48;;;;;;;29.83;15.73;;;0.30;99.90;;;;;;5053652;28;20201;-72
2023/03/07 02:14:14;;;;;;;28.70;14.97;;;0.40;99.90;;;;;;5051039;28;20268;-71
2023/03/07 02:16:40;;;;;;;32.23;14.70;;;0.40;99.90;;;;;;5042593;28;20566;-73
2023/03/07 02:19:29;;;;;;;31.73;16.10;;;0.40;99.90;;;;;;5041265;28;20210;-73
2023/03/07 02:22:11;;;;;;;32.23;15.73;;;0.50;99.90;;;;;;5047092;28;20211;-71
2023/03/07 02:24:54;;;;;;;29.40;15.53;;;0.50;99.90;;;;;;5044187;28;20219;-73
2023/03/07 02:27:24;;;;;;;32.03;16.20;;;0.60;99.90;;;;;;5039263;28;20294;-71
2023/03/07 02:29:50;;;;;;;35.57;17.43;;;0.60;99.90;;;;;;5043634;28;20691;-73
2023/03/07 02:32:16;;;;;;;33.13;16.30;;;0.60;99.90;;;;;;5041905;28;20208;-72
2023/03/07 02:34:42;;;;;;;36.20;17.90;;;0.70;99.90;;;;;;5050311;28;20271;-74
2023/03/07 02:37:33;;;;;;;38.33;17.90;;;0.80;99.90;;;;;;5044525;28;20314;-72
2023/03/07 02:40:04;;;;;;;32.73;18.30;;;0.80;99.90;;;;;;5048155;28;20762;-72
2023/03/07 02:42:34;;;;;;;34.13;17.43;;;0.80;99.90;;;;;;5041400;28;20205;-71
2023/03/07 02:45:03;;;;;;;39.70;19.13;;;0.90;99.90;;;;;;5041829;28;20595;-73
2023/03/07 02:47:29;;;;;;;35.93;17.30;;;0.90;99.90;;;;;;5037757;28;20778;-74
2023/03/07 02:49:54;;;;;;;38.50;20.17;;;0.90;99.90;;;;;;5040269;28;20210;-72
2023/03/07 02:52:21;;;;;;;37.70;19.40;;;0.90;99.90;;;;;;5038240;28;20548;-72
2023/03/07 02:54:47;;;;;;;41.87;20.40;;;1.00;99.90;;;;;;5041379;28;20264;-70
2023/03/07 02:57:14;;;;;;;39.60;18.80;;;1.00;99.90;;;;;;5038624;28;20955;-73
2023/03/07 02:59:39;;;;;;;41.30;21.00;;;1.00;99.90;;;;;;5036745;28;20209;-73
2023/03/07 03:02:05;;;;;;;39.50;19.20;;;1.00;99.90;;;;;;5040466;28;20264;-73
2023/03/07 03:04:31;;;;;;;44.40;20.40;;;1.10;99.90;;;;;;5038954;28;20243;-72
2023/03/07 03:06:56;;;;;;;39.17;19.00;;;1.10;99.90;;;;;;5040142;28;20211;-71
2023/03/07 03:09:22;;;;;;;41.40;20.67;;;1.10;99.90;;;;;;5038031;28;20694;-73
2023/03/07 03:11:48;;;;;;;38.67;20.63;;;1.10;99.90;;;;;;5039580;28;20214;-74
2023/03/07 03:14:13;;;;;;;41.07;20.30;;;1.20;99.90;;;;;;5041759;28;20637;-73
2023/03/07 03:16:40;;;;;;;40.93;20.13;;;1.20;99.90;;;;;;5040784;28;20253;-72
2023/03/07 03:19:06;;;;;;;40.33;19.80;;;1.20;99.90;;;;;;5037266;28;20215;-72
2023/03/07 03:21:32;;;;;;;40.07;20.97;;;1.30;99.90;;;;;;5038042;28;20295;-72
2023/03/07 03:24:02;;;;;;;38.80;19.27;;;1.30;99.90;;;;;;5043170;28;20207;-72
2023/03/07 03:26:28;;;;;;;42.33;20.27;;;1.30;99.90;;;;;;5039735;28;20208;-72
2023/03/07 03:28:53;;;;;;;35.23;19.80;;;1.20;99.90;;;;;;5039891;28;20194;-72
2023/03/07 03:31:19;;;;;;;38.37;19.93;;;1.30;99.90;;;;;;5039982;28;20704;-72
2023/03/07 03:33:45;;;;;;;39.30;19.77;;;1.30;99.90;;;;;;5040164;28;20323;-72
2023/03/07 03:36:15;;;;;;;39.00;19.73;;;1.30;99.90;;;;;;5044705;28;20215;-73
2023/03/07 03:38:41;;;;;;;41.20;19.87;;;1.40;99.90;;;;;;5041870;28;20207;-72
2023/03/07 03:41:10;;;;;;;38.63;19.27;;;1.40;99.90;;;;;;5040755;28;20171;-72
2023/03/07 03:43:36;;;;;;;40.97;20.23;;;1.40;99.90;;;;;;5045662;28;20231;-72
2023/03/07 03:46:02;;;;;;;38.33;19.37;;;1.50;99.90;;;;;;5044061;28;20233;-73
2023/03/07 03:48:28;;;;;;;37.87;19.90;;;1.40;99.90;;;;;;5041168;28;20220;-73
2023/03/07 03:51:09;;;;;;;35.70;19.27;;;1.40;99.90;;;;;;5046963;28;20211;-72
2023/03/07 03:53:36;;;;;;;38.53;19.23;;;1.50;99.90;;;;;;5041137;28;20245;-73
2023/03/07 03:56:11;;;;;;;38.87;18.43;;;1.50;99.90;;;;;;5034914;28;20171;-72
2023/03/07 03:58:38;;;;;;;38.20;19.17;;;1.60;99.90;;;;;;5040634;28;20237;-73
2023/03/07 04:01:06;;;;;;;36.27;18.83;;;1.60;99.90;;;;;;5041583;28;20221;-71
2023/03/07 04:03:37;;;;;;;37.10;18.23;;;1.60;99.90;;;;;;5040071;28;20226;-72
2023/03/07 04:06:12;;;;;;;37.47;18.70;;;1.60;99.90;;;;;;5043855;28;20204;-71
2023/03/07 04:08:38;;;;;;;34.87;17.67;;;1.60;99.90;;;;;;5041631;28;20219;-72
2023/03/07 04:11:04;;;;;;;34.73;18.93;;;1.70;99.90;;;;;;5047208;28;20218;-67
2023/03/07 04:13:34;;;;;;;36.27;19.07;;;1.70;99.90;;;;;;5040069;28;20179;-67
2023/03/07 04:16:00;;;;;;;38.87;18.30;;;1.70;99.90;;;;;;5046889;28;20207;-69
2023/03/07 04:18:26;;;;;;;33.80;17.07;;;1.70;99.90;;;;;;5042136;28;20324;-68
2023/03/07 04:20:52;;;;;;;35.73;17.57;;;1.80;99.90;;;;;;5043448;28;20207;-69
2023/03/07 04:23:19;;;;;;;35.67;18.77;;;1.80;99.90;;;;;;5039920;28;20727;-68
2023/03/07 04:25:54;;;;;;;38.83;18.83;;;1.80;99.90;;;;;;5041072;28;20294;-69
2023/03/07 04:28:20;;;;;;;36.23;18.57;;;1.90;99.90;;;;;;5041094;28;20655;-67
2023/03/07 04:30:48;;;;;;;39.73;19.87;;;1.90;99.90;;;;;;5046954;28;20215;-69
2023/03/07 04:33:15;;;;;;;37.23;17.50;;;1.90;99.90;;;;;;5038686;28;20204;-68
2023/03/07 04:35:40;;;;;;;38.43;17.77;;;1.90;99.90;;;;;;5039524;28;20845;-69
2023/03/07 04:38:06;;;;;;;36.73;19.17;;;1.90;99.90;;;;;;5043152;28;20188;-68
2023/03/07 04:40:33;;;;;;;35.23;18.20;;;2.00;99.90;;;;;;5044211;28;20176;-66
2023/03/07 04:42:59;;;;;;;34.83;18.17;;;2.00;99.90;;;;;;5047601;28;20196;-66
2023/03/07 04:45:25;;;;;;;36.23;17.73;;;2.00;99.90;;;;;;5039098;28;20246;-68
2023/03/07 04:47:50;;;;;;;34.87;18.17;;;2.00;99.90;;;;;;5040919;28;20203;-68
2023/03/07 04:50:17;;;;;;;33.53;18.03;;;2.00;99.90;;;;;;5079448;22;20245;-79
2023/03/07 04:52:43;;;;;;;32.90;16.90;;;2.00;99.90;;;;;;5053560;28;20183;-78
2023/03/07 04:55:09;;;;;;;36.73;18.27;;;2.00;99.90;;;;;;5050099;28;20626;-78
2023/03/07 04:57:34;;;;;;;34.70;16.67;;;1.90;99.90;;;;;;5069218;28;20215;-76
2023/03/07 05:00:00;;;;;;;42.75;23.15;;;1.90;99.90;;;;;;5063215;28;20415;-79
2023/03/07 05:02:26;;;;;;;38.23;19.57;;;1.90;99.90;;;;;;5048579;28;20212;-77
2023/03/07 05:04:51;;;;;;;40.83;18.87;;;1.80;99.90;;;;;;5049481;28;20198;-78
2023/03/07 05:07:17;;;;;;;34.07;17.07;;;1.70;99.90;;;;;;5050692;28;20211;-78
2023/03/07 05:09:43;;;;;;;36.67;18.07;;;1.70;99.90;;;;;;5063006;28;20210;-78
2023/03/07 05:12:08;;;;;;;35.23;17.57;;;1.70;99.90;;;;;;5062871;28;20618;-78
2023/03/07 05:14:34;;;;;;;35.57;18.80;;;1.70;99.90;;;;;;5061442;28;20701;-80
2023/03/07 05:17:00;;;;;;;33.60;17.80;;;1.70;99.90;;;;;;5043739;28;20610;-77
2023/03/07 05:19:25;;;;;;;38.53;18.37;;;1.70;99.90;;;;;;5046993;28;20293;-78
2023/03/07 05:21:51;;;;;;;34.50;17.87;;;1.70;99.90;;;;;;5062409;28;20610;-79
2023/03/07 05:24:17;;;;;;;36.10;18.70;;;1.70;99.90;;;;;;5048656;28;20225;-79
2023/03/07 05:26:43;;;;;;;31.40;16.77;;;1.70;99.90;;;;;;5059135;28;20890;-78
2023/03/07 05:29:09;;;;;;;31.77;17.30;;;1.70;99.90;;;;;;5062018;28;20411;-79
2023/03/07 05:31:35;;;;;;;37.27;18.70;;;1.70;99.90;;;;;;5045282;28;20259;-77
2023/03/07 05:34:00;;;;;;;32.43;16.57;;;1.70;99.90;;;;;;5062918;28;20236;-77
2023/03/07 05:36:27;;;;;;;31.00;17.73;;;1.80;99.90;;;;;;5048899;28;20235;-78
2023/03/07 05:38:55;;;;;;;35.63;17.90;;;1.70;99.90;;;;;;5042130;28;20207;-78
2023/03/07 05:41:21;;;;;;;33.63;17.77;;;1.70;99.90;;;;;;5045791;28;20235;-78
2023/03/07 05:43:46;;;;;;;33.97;18.00;;;1.70;99.90;;;;;;5047421;28;20203;-77
2023/03/07 05:46:12;;;;;;;34.93;18.03;;;1.80;99.90;;;;;;5063940;28;20578;-78
2023/03/07 05:48:38;;;;;;;29.23;17.20;;;1.80;99.90;;;;;;5056220;28;20215;-78
2023/03/07 05:51:04;;;;;;;38.33;18.73;;;1.80;99.90;;;;;;5048657;28;20627;-75
2023/03/07 05:53:30;;;;;;;36.07;18.23;;;1.80;99.90;;;;;;5055913;28;20230;-78
2023/03/07 05:55:55;;;;;;;31.27;17.17;;;1.80;99.90;;;;;;5064797;28;20555;-79
2023/03/07 05:58:21;;;;;;;33.87;17.13;;;1.80;99.90;;;;;;5050970;28;20199;-80
2023/03/07 06:00:48;;;;;;;32.10;16.80;;;1.80;99.90;;;;;;5043700;28;20708;-80
2023/03/07 06:03:14;;;;;;;34.93;17.97;;;1.80;99.90;;;;;;5058996;28;20199;-79
2023/03/07 06:05:39;;;;;;;29.60;16.33;;;1.90;99.90;;;;;;5063811;28;20244;-80
2023/03/07 06:08:06;;;;;;;35.77;18.87;;;1.90;99.90;;;;;;5052889;28;20265;-78
2023/03/07 06:10:33;;;;;;;32.97;17.23;;;1.90;99.90;;;;;;5064451;28;20179;-79
2023/03/07 06:12:58;;;;;;;30.00;17.00;;;1.90;99.90;;;;;;5068230;28;20207;-79
2023/03/07 06:15:24;;;;;;;32.20;17.07;;;1.90;99.90;;;;;;5052270;28;20203;-80
2023/03/07 06:17:51;;;;;;;31.60;17.13;;;1.90;99.90;;;;;;5065342;28;20260;-79
2023/03/07 06:20:19;;;;;;;29.70;17.13;;;2.00;99.90;;;;;;5049356;28;20222;-79
2023/03/07 06:22:45;;;;;;;34.47;17.70;;;2.00;99.90;;;;;;5068725;28;20224;-79
2023/03/07 06:25:11;;;;;;;29.60;16.67;;;2.00;99.90;;;;;;5066283;28;20213;-79
2023/03/07 06:27:39;;;;;;;31.30;16.63;;;2.10;99.90;;;;;;5063414;28;20207;-80
2023/03/07 06:30:07;;;;;;;31.13;16.90;;;2.10;99.90;;;;;;5063548;28;20216;-77
2023/03/07 06:32:33;;;;;;;30.27;16.37;;;2.10;99.90;;;;;;5053647;28;20210;-80
2023/03/07 06:34:58;;;;;;;31.33;17.13;;;2.10;99.90;;;;;;5057268;28;20184;-80
2023/03/07 06:37:24;;;;;;;31.13;16.87;;;2.20;99.90;;;;;;5073229;28;20672;-80
2023/03/07 06:39:50;;;;;;;31.47;16.03;;;2.20;99.90;;;;;;5069154;28;20238;-79
2023/03/07 06:42:15;;;;;;;31.80;18.07;;;2.20;99.90;;;;;;5068018;28;20210;-80
2023/03/07 06:44:41;;;;;;;33.87;17.40;;;2.30;99.90;;;;;;5072972;28;20275;-79
2023/03/07 06:47:07;;;;;;;32.13;17.60;;;2.30;99.90;;;;;;5072649;28;20551;-79
2023/03/07 06:49:32;;;;;;;28.83;16.53;;;2.30;99.90;;;;;;5068090;28;20223;-79
2023/03/07 06:51:59;;;;;;;30.30;15.50;;;2.30;99.90;;;;;;5069380;28;20228;-79
2023/03/07 06:54:24;;;;;;;29.40;16.17;;;2.40;99.90;;;;;;5067294;28;20210;-78
2023/03/07 06:56:50;;;;;;;30.17;16.20;;;2.40;99.90;;;;;;5074412;28;20603;-80
2023/03/07 06:59:16;;;;;;;27.37;15.40;;;2.40;99.90;;;;;;5066983;28;20214;-78
2023/03/07 07:01:42;;;;;;;28.43;15.10;;;2.50;99.90;;;;;;5066792;28;20242;-79
2023/03/07 07:04:10;;;;;;;29.77;15.93;;;2.50;99.90;;;;;;5067285;28;20207;-78
2023/03/07 07:06:35;;;;;;;28.53;15.73;;;2.60;99.90;;;;;;5068921;28;20206;-78
2023/03/07 07:09:03;;;;;;;25.20;14.80;;;2.60;99.90;;;;;;5052514;28;20214;-78
2023/03/07 07:11:28;;;;;;;25.63;14.50;;;2.60;99.90;;;;;;5065982;28;20210;-77
2023/03/07 07:13:54;;;;;;;28.57;13.33;;;2.60;99.90;;;;;;5067495;28;20179;-79
2023/03/07 07:16:20;;;;;;;31.47;15.10;;;2.60;99.90;;;;;;5054004;28;20190;-78
2023/03/07 07:18:45;;;;;;;26.57;13.93;;;2.70;99.90;;;;;;5057043;28;20231;-79
2023/03/07 07:21:11;;;;;;;30.47;14.77;;;2.70;99.90;;;;;;5069160;28;20202;-77
2023/03/07 07:23:37;;;;;;;25.23;14.27;;;2.70;99.90;;;;;;5059067;28;20215;-80
2023/03/07 07:26:02;;;;;;;26.17;14.63;;;2.70;99.90;;;;;;5076580;28;20167;-78
2023/03/07 07:28:28;;;;;;;25.07;13.93;;;2.80;99.90;;;;;;5074551;28;20187;-78
2023/03/07 07:30:54;;;;;;;25.50;13.87;;;2.90;99.90;;;;;;5070063;28;20216;-79
2023/03/07 07:33:19;;;;;;;29.37;14.27;;;3.00;99.90;;;;;;5072759;28;20293;-78
2023/03/07 07:35:46;;;;;;;25.70;13.80;;;3.00;99.90;;;;;;5079901;28;20348;-79
2023/03/07 07:38:12;;;;;;;27.50;14.67;;;3.20;99.90;;;;;;5058009;28;20594;-78
2023/03/07 07:40:39;;;;;;;24.80;12.90;;;3.40;99.90;;;;;;5068448;28;20524;-79
2023/03/07 07:43:05;;;;;;;26.17;13.47;;;3.50;99.90;;;;;;5070452;28;20801;-77
2023/03/07 07:45:30;;;;;;;23.83;13.17;;;3.50;99.90;;;;;;5065616;28;20223;-76
2023/03/07 07:47:56;;;;;;;25.57;13.20;;;3.50;99.90;;;;;;5055001;28;20713;-78
2023/03/07 07:50:23;;;;;;;26.27;12.93;;;3.50;99.90;;;;;;5067669;28;20720;-78
2023/03/07 07:52:49;;;;;;;21.27;12.83;;;3.40;99.90;;;;;;5055986;28;20345;-78
2023/03/07 07:55:15;;;;;;;21.83;13.40;;;3.40;99.90;;;;;;5070273;28;20706;-78
2023/03/07 07:57:41;;;;;;;26.07;13.70;;;3.40;99.90;;;;;;5062260;28;20404;-79
2023/03/07 08:00:09;;;;;;;23.97;12.83;;;3.40;99.90;;;;;;5072103;28;20208;-79
2023/03/07 08:02:35;;;;;;;24.30;12.90;;;3.40;99.90;;;;;;5064582;28;20242;-78
2023/03/07 08:05:00;;;;;;;20.93;12.27;;;3.40;99.90;;;;;;5085121;28;20211;-80
2023/03/07 08:07:26;;;;;;;20.70;12.40;;;3.40;99.90;;;;;;5074433;28;20195;-78
2023/03/07 08:09:52;;;;;;;23.87;13.03;;;3.40;99.90;;;;;;5068954;28;20240;-78
2023/03/07 08:12:18;;;;;;;21.83;12.83;;;3.40;99.90;;;;;;5089307;28;20856;-80
2023/03/07 08:14:43;;;;;;;22.43;12.43;;;3.50;99.90;;;;;;5069423;28;20229;-80
2023/03/07 08:17:09;;;;;;;21.40;12.70;;;3.40;99.90;;;;;;5087081;28;20205;-80
2023/03/07 08:19:35;;;;;;;24.60;13.10;;;3.50;99.90;;;;;;5077239;28;20221;-80
2023/03/07 08:22:01;;;;;;;32.23;19.33;;;3.50;99.90;;;;;;5058930;28;20215;-80
2023/03/07 08:24:27;;;;;;;21.43;12.47;;;3.50;99.90;;;;;;5060780;28;20273;-81
2023/03/07 08:26:53;;;;;;;21.07;11.73;;;3.40;99.90;;;;;;5057478;28;20213;-79
2023/03/07 08:29:19;;;;;;;23.73;13.17;;;3.40;99.90;;;;;;5066873;28;20228;-77
2023/03/07 08:31:45;;;;;;;23.03;12.03;;;3.40;99.90;;;;;;5071992;28;20180;-78
2023/03/07 08:34:11;;;;;;;24.80;12.43;;;3.40;99.90;;;;;;5050849;28;20301;-79
2023/03/07 08:36:38;;;;;;;23.13;12.67;;;3.50;99.90;;;;;;5072162;28;20218;-79
2023/03/07 08:39:04;;;;;;;23.67;12.23;;;3.70;99.90;;;;;;5067980;28;20281;-77
2023/03/07 08:41:30;;;;;;;20.40;12.07;;;3.80;99.90;;;;;;5088565;28;20232;-81
2023/03/07 08:43:56;;;;;;;20.23;11.43;;;3.90;99.90;;;;;;5067203;28;20206;-79
2023/03/07 08:46:22;;;;;;;20.33;11.60;;;4.10;99.90;;;;;;5069282;28;20240;-80
2023/03/07 08:48:48;;;;;;;17.73;10.60;;;4.20;99.90;;;;;;5080180;28;20219;-78
2023/03/07 08:51:15;;;;;;;19.37;11.00;;;4.30;99.90;;;;;;5074116;28;20229;-79
2023/03/07 08:53:45;;;;;;;20.27;12.60;;;4.30;99.90;;;;;;5063498;28;20228;-80
2023/03/07 08:56:16;;;;;;;18.93;10.83;;;4.30;99.90;;;;;;5054491;28;20186;-79
2023/03/07 08:58:42;;;;;;;20.63;11.40;;;4.30;99.90;;;;;;5068613;28;20191;-78
2023/03/07 09:01:09;;;;;;;19.57;11.40;;;4.50;99.90;;;;;;5061776;28;20260;-77
2023/03/07 09:03:35;;;;;;;18.10;10.80;;;4.50;99.90;;;;;;5084852;28;20223;-76
2023/03/07 09:06:01;;;;;;;17.07;9.77;;;4.60;99.90;;;;;;5077691;28;20295;-79
2023/03/07 09:08:27;;;;;;;16.97;10.17;;;4.70;99.90;;;;;;5066692;28;20287;-80
2023/03/07 09:10:53;;;;;;;18.03;10.63;;;4.60;99.90;;;;;;5080380;28;20246;-78
2023/03/07 09:13:19;;;;;;;16.23;10.10;;;4.70;99.90;;;;;;5063620;28;20214;-78
2023/03/07 09:15:45;;;;;;;19.47;10.57;;;4.80;99.90;;;;;;5067360;28;20210;-78
2023/03/07 09:18:11;;;;;;;17.17;9.77;;;4.80;99.90;;;;;;5083466;28;20208;-79
2023/03/07 09:20:37;;;;;;;15.97;10.17;;;4.70;99.90;;;;;;5083904;28;20214;-79
2023/03/07 09:23:03;;;;;;;16.27;9.90;;;4.80;99.90;;;;;;5059473;28;20186;-78
2023/03/07 09:25:29;;;;;;;14.60;9.20;;;4.80;99.90;;;;;;5059844;28;20202;-80
2023/03/07 09:27:55;;;;;;;15.73;9.67;;;4.70;99.90;;;;;;5048523;28;20206;-76
2023/03/07 09:30:25;;;;;;;13.47;9.03;;;4.80;99.90;;;;;;5063104;28;20616;-75
2023/03/07 09:32:51;;;;;;;17.00;9.93;;;4.90;99.90;;;;;;5069673;28;20206;-77
2023/03/07 09:35:17;;;;;;;14.73;9.43;;;4.90;99.90;;;;;;5061962;28;20288;-79
2023/03/07 09:37:43;;;;;;;13.80;8.43;;;4.90;99.90;;;;;;5067692;28;20257;-78
2023/03/07 09:40:18;;;;;;;15.23;9.13;;;5.00;99.90;;;;;;5071494;28;20766;-77
2023/03/07 09:43:09;;;;;;;14.33;8.43;;;5.00;99.90;;;;;;5077972;28;20210;-79
2023/03/07 09:45:54;;;;;;;15.33;8.80;;;5.00;99.90;;;;;;5075400;28;20249;-79
2023/03/07 09:48:25;;;;;;;15.43;9.33;;;5.10;99.90;;;;;;5075090;28;20210;-78
2023/03/07 09:50:57;;;;;;;16.37;8.97;;;5.20;99.90;;;;;;5078692;28;20222;-76
2023/03/07 09:53:43;;;;;;;14.37;8.60;;;5.20;99.90;;;;;;5063690;28;20229;-79
2023/03/07 09:56:43;;;;;;;12.70;7.57;;;5.30;99.90;;;;;;5063585;28;20186;-78
2023/03/07 09:59:33;;;;;;;10.63;7.43;;;5.40;99.90;;;;;;5079749;28;20222;-80
2023/03/07 10:02:23;;;;;;;13.10;7.80;;;5.40;99.90;;;;;;5083815;28;20186;-79
2023/03/07 10:04:58;;;;;;;14.63;7.10;;;5.60;99.90;;;;;;5064743;28;20214;-79
2023/03/07 10:07:25;;;;;;;12.27;6.93;;;5.70;99.90;;;;;;5077708;28;20302;-79
2023/03/07 10:09:58;;;;;;;12.43;7.93;;;5.90;99.90;;;;;;5082792;28;20249;-79
2023/03/07 10:12:42;;;;;;;13.53;7.53;;;6.00;99.90;;;;;;5060321;28;20277;-79
2023/03/07 10:15:29;;;;;;;9.70;6.67;;;6.00;99.90;;;;;;5076325;28;20198;-78
2023/03/07 10:18:19;;;;;;;11.67;6.73;;;6.00;99.90;;;;;;5083386;28;20215;-79
2023/03/07 10:20:47;;;;;;;10.07;6.47;;;5.80;99.90;;;;;;5063220;28;20685;-79
2023/03/07 10:23:36;;;;;;;8.90;6.13;;;5.80;99.90;;;;;;5067485;28;20272;-79
2023/03/07 10:26:09;;;;;;;8.87;5.47;;;5.80;99.90;;;;;;5069175;28;20208;-80
2023/03/07 10:28:38;;;;;;;8.80;5.73;;;5.70;99.90;;;;;;5070169;28;20588;-78
2023/03/07 10:31:16;;;;;;;7.90;4.83;;;5.60;99.90;;;;;;5065101;28;20291;-76
2023/03/07 10:33:47;;;;;;;6.33;4.60;;;5.50;99.90;;;;;;5064799;28;20229;-80
2023/03/07 10:36:19;;;;;;;7.60;4.33;;;5.50;99.90;;;;;;5049482;28;20203;-78
2023/03/07 10:38:53;;;;;;;5.90;4.20;;;5.50;99.90;;;;;;5064707;28;20211;-78
2023/03/07 10:41:21;;;;;;;5.87;3.83;;;5.40;99.90;;;;;;5052877;28;20681;-79
2023/03/07 10:43:48;;;;;;;4.40;2.80;;;5.40;99.90;;;;;;5053310;28;20206;-78
2023/03/07 10:46:26;;;;;;;4.77;3.30;;;5.40;99.90;;;;;;5068939;28;20210;-79
2023/03/07 10:49:07;;;;;;;5.17;2.60;;;5.40;99.90;;;;;;5074245;28;20328;-78
2023/03/07 10:52:01;;;;;;;3.53;2.33;;;5.40;99.90;;;;;;5092646;22;20221;-76
2023/03/07 10:54:35;;;;;;;6.00;2.90;;;5.40;99.90;;;;;;5071380;28;20236;-75
2023/03/07 10:57:11;;;;;;;5.07;2.80;;;5.30;99.90;;;;;;5068902;28;20258;-76
2023/03/07 10:59:39;;;;;;;4.77;2.70;;;5.40;99.90;;;;;;5075548;28;20221;-76
2023/03/07 11:02:46;;;;;;;5.67;2.87;;;5.30;99.90;;;;;;5090746;28;20193;-71
2023/03/07 11:05:35;;;;;;;4.73;2.93;;;5.20;99.90;;;;;;5084145;28;20212;-75
2023/03/07 11:08:27;;;;;;;6.93;3.43;;;5.30;99.90;;;;;;5089814;28;21107;-75
2023/03/07 11:10:54;;;;;;;4.37;3.07;;;5.30;99.90;;;;;;5068627;28;20178;-75
2023/03/07 11:13:21;;;;;;;4.50;2.73;;;5.30;99.90;;;;;;5091310;28;20248;-75
2023/03/07 11:15:48;;;;;;;5.43;3.30;;;5.30;99.90;;;;;;5086323;28;20294;-75
2023/03/07 11:18:41;;;;;;;5.70;3.23;;;5.40;99.90;;;;;;5086594;28;20288;-75
2023/03/07 11:21:31;;;;;;;5.83;3.33;;;5.50;99.90;;;;;;5087958;28;20218;-76
2023/03/07 11:24:04;;;;;;;4.73;2.97;;;5.60;99.90;;;;;;5088799;28;20608;-77
2023/03/07 11:26:32;;;;;;;3.87;2.73;;;5.60;99.90;;;;;;5069402;28;20230;-76
2023/03/07 11:29:12;;;;;;;2.97;2.30;;;5.50;99.90;;;;;;5085807;28;20209;-75
2023/03/07 11:31:56;;;;;;;4.70;2.40;;;5.50;99.90;;;;;;5070962;28;20201;-75
2023/03/07 11:34:46;;;;;;;4.40;2.37;;;5.40;99.90;;;;;;5089358;28;20214;-76
2023/03/07 11:37:37;;;;;;;4.67;3.00;;;5.30;99.90;;;;;;5088678;28;20213;-75
2023/03/07 11:40:25;;;;;;;4.37;2.70;;;5.50;99.90;;;;;;5088905;28;21214;-75
2023/03/07 11:43:12;;;;;;;5.53;2.00;;;5.50;99.90;;;;;;5090047;28;20721;-76
2023/03/07 11:45:47;;;;;;;2.17;1.57;;;5.40;99.90;;;;;;5088820;28;20284;-74
2023/03/07 11:48:36;;;;;;;3.97;2.07;;;5.50;99.90;;;;;;5086468;28;20606;-76
2023/03/07 11:51:05;;;;;;;5.80;1.70;;;5.70;99.90;;;;;;5086364;28;20247;-76
2023/03/07 11:53:41;;;;;;;3.97;2.00;;;5.70;99.90;;;;;;5088301;28;20237;-75
2023/03/07 11:56:27;;;;;;;3.97;1.70;;;5.70;99.90;;;;;;5088602;28;20547;-75
2023/03/07 11:59:11;;;;;;;2.77;1.83;;;5.60;99.90;;;;;;5086526;28;20663;-76
2023/03/07 12:01:45;;;;;;;4.83;1.60;;;5.40;99.90;;;;;;5090801;28;20200;-75
2023/03/07 12:04:59;;;;;;;2.33;1.47;;;5.30;99.90;;;;;;5087241;28;20703;-75
2023/03/07 12:07:39;;;;;;;2.43;1.20;;;5.30;99.90;;;;;;5078650;28;20205;-72
2023/03/07 12:10:39;;;;;;;1.83;1.40;;;5.20;99.90;;;;;;5084249;28;20217;-71
2023/03/07 12:13:07;;;;;;;2.90;1.50;;;5.00;99.90;;;;;;5078795;28;20215;-69
2023/03/07 12:15:39;;;;;;;4.00;1.10;;;5.00;99.90;;;;;;5066601;28;20230;-73
2023/03/07 12:18:14;;;;;;;6.03;1.60;;;5.00;99.90;;;;;;5082426;28;20296;-71
2023/03/07 12:21:05;;;;;;;4.67;1.30;;;5.00;99.90;;;;;;5082472;28;20213;-73
2023/03/07 12:24:27;;;;;;;2.57;1.27;;;4.90;99.90;;;;;;5063543;28;20213;-78
2023/03/07 12:26:59;;;;;;;3.73;1.10;;;4.80;99.90;;;;;;5000722;28;20250;-75
2023/03/07 12:29:38;;;;;;;1.90;1.10;;;4.70;99.90;;;;;;5066113;28;20240;-75
2023/03/07 12:32:16;;;;;;;3.30;1.23;;;4.70;99.90;;;;;;5082552;28;20223;-72
2023/03/07 12:34:57;;;;;;;2.80;1.37;;;4.60;99.90;;;;;;5082549;28;20228;-72
2023/03/07 12:37:34;;;;;;;4.13;1.23;;;4.60;99.90;;;;;;5087857;28;20656;-71
2023/03/07 12:40:04;;;;;;;3.20;1.03;;;4.60;99.90;;;;;;5084203;28;20208;-72
2023/03/07 12:42:55;;;;;;;2.50;1.33;;;4.50;99.90;;;;;;5067144;28;20703;-72
2023/03/07 12:45:32;;;;;;;3.47;1.20;;;4.40;99.90;;;;;;5082297;28;20225;-70
2023/03/07 12:48:06;;;;;;;2.37;1.20;;;4.30;99.90;;;;;;5086372;28;20716;-73
2023/03/07 12:50:49;;;;;;;5.63;1.20;;;4.40;99.90;;;;;;5062026;28;20214;-72
2023/03/07 12:53:39;;;;;;;4.83;1.20;;;4.30;99.90;;;;;;5078209;28;20246;-73
2023/03/07 12:56:17;;;;;;;4.57;1.57;;;4.30;99.90;;;;;;5080453;28;20630;-71
2023/03/07 12:58:54;;;;;;;3.33;1.67;;;4.30;99.90;;;;;;5064334;28;20175;-73